Armstrong Airport
CYYW : now visible

Airfield :











YOU CAN JOIN US ON...

 
LOGIN :

Register | Disclaimer

   EN    FR    IT 

 









Legend :    VFR   Marginal VFR   IFR   Intensive IFR   Very Intensive IFR
Visi :
Ceiling :
>= 8 km
>= 3000ft
5 to 8 km
1000 to 3000 ft
1500m to 5 km
500 to 1000 ft
800 to 1500m
200 to 500 ft
< 800m
< 200 ft
Symbols :   Thunderstorms  Fog  Heavy snow  Heavy precipitations  Wind > 20 kt






- Airport Elevation : 1058 ft
- IATA code : YYW


CYYW - Armstrong

CURRENT METAR :
  • 170300Z AUTO 15006KT 9SM OVC050 13/13 A2957 RMK SLP013 DENSITY ALT 1600FT

EXPIRED METARs :
  • 170201Z AUTO 14009KT 9SM SCT007 BKN036 BKN140 BKN220 14/13 A2956 RMK SLP009 DENSITY ALT 1600FT
  • 170145Z AUTO 14008KT 9SM -RA FEW007 SCT040 SCT066 OVC130 14/13 A2955 RMK SLP006 DENSITY ALT 1600FT
  • 170125Z AUTO 12007KT 100V170 9SM -RA SCT045 SCT130 BKN160 OVC220 15/13 A2955 RMK SLP005 DENSITY ALT 1700FT
  • 170100Z AUTO 14008KT 9SM BKN120 BKN140 OVC220 15/13 A2956 RMK SLP009 DENSITY ALT 1700FT
  • 170000Z AUTO 15010KT 9SM CLR 16/13 A2956 RMK SLP009 DENSITY ALT 1900FT
  • 162300Z AUTO 15009KT 9SM CLR 18/14 A2957 RMK SLP009 DENSITY ALT 2100FT

TAF N/A
CZWG FIR / North America



MET'MAP, your aeronautical weather chart ! - Copyright ORBIFLY December 2007 - Disclaimer

ORBIFLY MET'MAP TEAM :

Programming & Development : Alexandra Zaïnal
Original concept : Baudouin d'Aumeries
Technical & hardware support : Manuel Goepfert
Assistance : Marc-Olivier Méhu




SOURCES & CREDITS :

   NOAA       Earth
Advisory